Time;durP1;ratioP1;P1;durP2;ratioP2;P2;SDS_P1;SDS_P2;PMS_P1;PMS_P2;Temp;Humidity;BMP_temperature;BMP_pressure;BME280_temperature;BME280_humidity;BME280_pressure;Samples;Min_cycle;Max_cycle;Signal;HPM_P1;HPM_P2
2023/03/20 00:02:22;;;;;;;18.83;4.57;;;23.80;99.90;;;;;;5034619;28;20180;-72
2023/03/20 00:04:49;;;;;;;14.90;4.67;;;23.80;99.90;;;;;;5042658;28;20641;-71
2023/03/20 00:07:17;;;;;;;15.80;4.77;;;23.80;99.90;;;;;;5054241;28;20193;-71
2023/03/20 00:09:46;;;;;;;18.63;5.03;;;23.90;99.90;;;;;;5054017;28;20196;-72
2023/03/20 00:12:23;;;;;;;13.83;4.87;;;23.80;99.90;;;;;;5072872;28;20278;-72
2023/03/20 00:14:51;;;;;;;15.47;3.83;;;23.60;99.90;;;;;;5036176;28;20188;-72
2023/03/20 00:17:20;;;;;;;20.17;3.97;;;23.50;99.90;;;;;;5039772;28;20287;-72
2023/03/20 00:19:48;;;;;;;12.57;3.20;;;23.30;99.90;;;;;;5061608;28;20653;-72
2023/03/20 00:22:16;;;;;;;14.97;3.93;;;23.20;99.90;;;;;;5055339;28;20230;-72
2023/03/20 00:24:44;;;;;;;16.00;3.97;;;23.10;99.90;;;;;;5054369;28;20306;-71
2023/03/20 00:27:15;;;;;;;12.00;3.10;;;23.10;99.90;;;;;;5085595;28;20173;-72
2023/03/20 00:29:43;;;;;;;13.97;3.13;;;23.20;99.90;;;;;;5052892;28;20328;-71
2023/03/20 00:32:14;;;;;;;6.90;2.00;;;23.30;99.90;;;;;;5053445;28;20173;-71
2023/03/20 00:34:42;;;;;;;6.77;2.03;;;23.10;99.90;;;;;;5054146;28;20223;-72
2023/03/20 00:37:11;;;;;;;9.33;2.50;;;23.00;99.90;;;;;;5055113;28;20699;-71
2023/03/20 00:39:40;;;;;;;4.87;1.63;;;23.00;99.90;;;;;;5053562;28;20684;-71
2023/03/20 00:42:17;;;;;;;9.80;2.00;;;22.80;99.90;;;;;;5056521;28;20191;-72
2023/03/20 00:44:52;;;;;;;6.30;1.87;;;22.90;99.90;;;;;;5052122;28;20208;-71
2023/03/20 00:47:23;;;;;;;4.10;1.70;;;23.00;99.90;;;;;;5051162;28;20187;-71
2023/03/20 00:49:53;;;;;;;5.53;1.80;;;23.00;99.90;;;;;;5054189;28;20184;-71
2023/03/20 00:52:22;;;;;;;5.70;1.37;;;23.20;99.90;;;;;;5054407;28;20692;-71
2023/03/20 00:54:50;;;;;;;6.73;1.90;;;23.20;99.90;;;;;;5054690;28;20196;-71
2023/03/20 00:57:26;;;;;;;8.37;1.83;;;23.20;99.90;;;;;;5049916;28;20207;-71
2023/03/20 01:00:20;;;;;;;5.57;1.30;;;23.10;99.90;;;;;;5051391;28;20205;-72
2023/03/20 01:02:48;;;;;;;7.03;1.67;;;23.30;99.90;;;;;;5051618;28;20683;-72
2023/03/20 01:05:16;;;;;;;5.97;1.60;;;23.50;99.90;;;;;;5055949;28;20205;-72
2023/03/20 01:07:45;;;;;;;10.50;1.57;;;23.50;99.90;;;;;;5053105;28;20185;-72
2023/03/20 01:10:13;;;;;;;5.80;1.63;;;23.50;99.90;;;;;;5059911;28;20299;-72
2023/03/20 01:12:42;;;;;;;5.37;1.83;;;23.30;99.90;;;;;;5072887;28;20223;-72
2023/03/20 01:15:20;;;;;;;5.00;1.20;;;23.40;99.90;;;;;;5056171;28;20564;-72
2023/03/20 01:17:48;;;;;;;8.47;2.07;;;23.60;99.90;;;;;;5051540;28;20194;-72
2023/03/20 01:20:25;;;;;;;4.57;1.37;;;23.60;99.90;;;;;;5050904;28;20196;-72
2023/03/20 01:22:54;;;;;;;9.87;1.67;;;23.70;99.90;;;;;;5052921;28;20271;-73
2023/03/20 01:25:22;;;;;;;2.80;1.03;;;23.60;99.90;;;;;;5052655;28;20216;-72
2023/03/20 01:27:56;;;;;;;6.87;1.60;;;23.70;99.90;;;;;;5052859;28;20179;-72
2023/03/20 01:30:25;;;;;;;8.13;1.67;;;23.60;99.90;;;;;;5052940;28;20649;-74
2023/03/20 01:32:54;;;;;;;7.03;1.47;;;23.50;99.90;;;;;;5052706;28;20181;-72
2023/03/20 01:35:26;;;;;;;6.50;1.47;;;23.50;99.90;;;;;;5056665;28;20187;-72
2023/03/20 01:37:55;;;;;;;6.73;1.80;;;23.30;99.90;;;;;;5045686;28;20183;-72
2023/03/20 01:40:38;;;;;;;4.63;1.70;;;23.20;99.90;;;;;;5052661;28;20176;-73
2023/03/20 01:43:15;;;;;;;11.30;1.80;;;23.10;99.90;;;;;;5052589;28;20630;-73
2023/03/20 01:46:05;;;;;;;9.07;1.50;;;23.20;99.90;;;;;;5045807;28;20228;-71
2023/03/20 01:48:52;;;;;;;6.23;2.00;;;23.00;99.90;;;;;;5047613;28;20203;-72
2023/03/20 01:51:22;;;;;;;8.03;1.77;;;23.10;99.90;;;;;;5071124;28;20606;-73
2023/03/20 01:53:58;;;;;;;7.63;1.50;;;22.90;99.90;;;;;;5064305;28;20223;-73
2023/03/20 01:56:28;;;;;;;8.43;1.70;;;22.90;99.90;;;;;;5032638;28;20176;-73
2023/03/20 01:59:03;;;;;;;10.27;2.13;;;23.00;99.90;;;;;;5049635;28;20193;-73
2023/03/20 02:01:31;;;;;;;7.97;1.83;;;23.00;99.90;;;;;;5072267;28;20180;-72
2023/03/20 02:04:00;;;;;;;9.23;1.83;;;23.10;99.90;;;;;;5070982;28;20199;-72
2023/03/20 02:06:28;;;;;;;5.70;1.70;;;23.10;99.90;;;;;;5072312;28;20238;-73
2023/03/20 02:08:55;;;;;;;11.43;1.87;;;23.30;99.90;;;;;;5064998;28;20184;-72
2023/03/20 02:11:24;;;;;;;11.60;2.57;;;23.20;99.90;;;;;;5063442;28;20580;-72
2023/03/20 02:13:54;;;;;;;10.60;2.13;;;23.10;99.90;;;;;;5053621;28;20227;-73
2023/03/20 02:16:22;;;;;;;10.70;2.50;;;23.10;99.90;;;;;;5072250;28;20187;-73
2023/03/20 02:18:55;;;;;;;7.63;1.90;;;23.30;99.90;;;;;;5071911;28;20208;-73
2023/03/20 02:21:46;;;;;;;9.70;2.33;;;23.50;99.90;;;;;;5069627;28;20240;-72
2023/03/20 02:24:17;;;;;;;17.13;3.17;;;23.50;99.90;;;;;;5060344;28;20189;-73
2023/03/20 02:27:03;;;;;;;12.93;2.93;;;23.40;99.90;;;;;;5047319;28;20181;-73
2023/03/20 02:29:50;;;;;;;9.80;2.47;;;23.20;99.90;;;;;;5040376;28;20223;-73
2023/03/20 02:32:40;;;;;;;15.03;2.33;;;23.00;99.90;;;;;;5084006;28;20233;-72
2023/03/20 02:35:36;;;;;;;11.80;2.63;;;22.90;99.90;;;;;;5062410;28;20191;-72
2023/03/20 02:38:24;;;;;;;11.63;2.93;;;23.10;99.90;;;;;;5071289;28;20179;-73
2023/03/20 02:41:15;;;;;;;12.77;2.60;;;23.30;99.90;;;;;;5058984;28;20235;-73
2023/03/20 02:44:06;;;;;;;12.13;2.57;;;23.20;99.90;;;;;;5043437;28;20191;-72
2023/03/20 02:46:51;;;;;;;10.77;2.07;;;23.10;99.90;;;;;;5070393;28;20194;-72
2023/03/20 02:49:39;;;;;;;15.27;2.50;;;23.10;99.90;;;;;;5060287;28;20647;-72
2023/03/20 02:52:37;;;;;;;18.73;3.97;;;23.00;99.90;;;;;;5063854;28;20220;-72
2023/03/20 02:55:29;;;;;;;16.93;2.60;;;23.10;99.90;;;;;;5038722;28;20210;-73
2023/03/20 02:57:59;;;;;;;14.37;2.83;;;23.30;99.90;;;;;;5037671;28;20183;-73
2023/03/20 03:00:58;;;;;;;9.03;2.50;;;23.20;99.90;;;;;;5070302;28;20181;-72
2023/03/20 03:03:37;;;;;;;9.20;2.40;;;23.00;99.90;;;;;;5063985;28;20693;-72
2023/03/20 03:06:16;;;;;;;8.80;2.17;;;23.00;99.90;;;;;;5068198;28;20249;-73
2023/03/20 03:08:50;;;;;;;12.33;2.43;;;22.90;99.90;;;;;;5067927;28;20197;-72
2023/03/20 03:11:17;;;;;;;13.80;3.20;;;22.90;99.90;;;;;;5069419;28;20255;-73
2023/03/20 03:14:04;;;;;;;17.77;2.93;;;23.00;99.90;;;;;;5070050;28;20232;-72
2023/03/20 03:16:37;;;;;;;11.53;2.67;;;23.00;99.90;;;;;;5060222;28;20195;-73
2023/03/20 03:19:22;;;;;;;17.40;3.23;;;23.00;99.90;;;;;;5031120;28;20171;-72
2023/03/20 03:21:50;;;;;;;15.97;3.10;;;23.00;99.90;;;;;;5047000;28;20196;-72
2023/03/20 03:24:29;;;;;;;6.53;1.93;;;22.90;99.90;;;;;;5052835;28;20212;-72
2023/03/20 03:27:00;;;;;;;13.70;2.30;;;23.00;99.90;;;;;;5048730;28;20185;-72
2023/03/20 03:29:33;;;;;;;15.17;2.50;;;23.10;99.90;;;;;;5050343;28;20770;-73
2023/03/20 03:32:03;;;;;;;16.20;2.70;;;23.10;99.90;;;;;;5044674;28;20257;-72
2023/03/20 03:34:32;;;;;;;14.80;2.63;;;23.10;99.90;;;;;;5070427;28;20654;-72
2023/03/20 03:37:14;;;;;;;15.27;3.03;;;22.90;99.90;;;;;;5067439;28;20248;-73
2023/03/20 03:39:52;;;;;;;8.80;2.20;;;22.90;99.90;;;;;;5068985;28;20198;-72
2023/03/20 03:42:29;;;;;;;12.13;2.20;;;22.80;99.90;;;;;;5069218;28;20175;-73
2023/03/20 03:45:14;;;;;;;8.30;1.90;;;22.80;99.90;;;;;;5051150;28;20255;-72
2023/03/20 03:48:00;;;;;;;10.00;2.13;;;22.60;99.90;;;;;;5050002;28;20215;-73
2023/03/20 03:50:47;;;;;;;11.80;2.10;;;22.60;99.90;;;;;;5064947;28;20191;-72
2023/03/20 03:53:23;;;;;;;13.77;2.43;;;22.80;99.90;;;;;;5055464;28;20188;-73
2023/03/20 03:56:01;;;;;;;16.47;2.30;;;22.70;99.90;;;;;;5072510;28;20179;-73
2023/03/20 03:58:41;;;;;;;12.40;2.43;;;22.90;99.90;;;;;;5072558;28;20224;-73
2023/03/20 04:01:12;;;;;;;10.97;2.43;;;23.00;99.90;;;;;;5063276;28;20215;-73
2023/03/20 04:03:51;;;;;;;9.87;2.57;;;23.00;99.90;;;;;;5065537;28;20196;-73
2023/03/20 04:06:20;;;;;;;9.17;2.40;;;23.10;99.90;;;;;;5034278;28;20226;-72
2023/03/20 04:08:48;;;;;;;12.87;2.50;;;22.90;99.90;;;;;;5066370;28;20185;-73
2023/03/20 04:11:19;;;;;;;14.03;2.83;;;23.00;99.90;;;;;;5034216;28;20246;-73
2023/03/20 04:13:49;;;;;;;11.33;2.63;;;23.10;99.90;;;;;;5048482;28;20236;-73
2023/03/20 04:16:18;;;;;;;8.67;2.57;;;23.00;99.90;;;;;;5054197;28;20177;-73
2023/03/20 04:18:46;;;;;;;12.93;3.10;;;23.00;99.90;;;;;;5053029;28;20194;-72
2023/03/20 04:21:15;;;;;;;9.67;2.13;;;22.90;99.90;;;;;;5043847;28;20677;-72
2023/03/20 04:23:42;;;;;;;12.83;2.57;;;22.80;99.90;;;;;;5065686;28;20286;-73
2023/03/20 04:26:10;;;;;;;11.03;2.20;;;22.70;99.90;;;;;;5071768;28;20273;-74
2023/03/20 04:28:38;;;;;;;13.63;2.33;;;22.70;99.90;;;;;;5071618;28;20229;-73
2023/03/20 04:31:06;;;;;;;9.97;1.50;;;22.60;99.90;;;;;;5073038;28;20542;-73
2023/03/20 04:33:35;;;;;;;8.13;1.67;;;22.30;99.90;;;;;;5048498;28;20211;-73
2023/03/20 04:36:02;;;;;;;10.50;2.27;;;22.10;99.90;;;;;;5055292;28;20522;-74
2023/03/20 04:38:30;;;;;;;13.20;2.47;;;22.10;99.90;;;;;;5046535;28;20185;-73
2023/03/20 04:40:58;;;;;;;12.90;2.37;;;22.10;99.90;;;;;;5033712;28;20608;-73
2023/03/20 04:43:26;;;;;;;8.87;1.90;;;22.10;99.90;;;;;;5053621;28;20210;-73
2023/03/20 04:45:54;;;;;;;9.90;2.03;;;22.00;99.90;;;;;;5043388;28;20705;-73
2023/03/20 04:48:21;;;;;;;16.90;3.00;;;22.20;99.90;;;;;;5073543;28;20176;-74
2023/03/20 04:50:49;;;;;;;10.77;2.50;;;22.20;99.90;;;;;;5055782;28;20177;-73
2023/03/20 04:53:19;;;;;;;19.37;3.40;;;22.20;99.90;;;;;;5052629;28;20279;-73
2023/03/20 04:55:47;;;;;;;13.67;2.53;;;22.20;99.90;;;;;;5053487;28;20183;-73
2023/03/20 04:58:14;;;;;;;10.37;2.00;;;22.20;99.90;;;;;;5053416;28;20251;-73
2023/03/20 05:00:43;;;;;;;10.47;2.53;;;22.20;99.90;;;;;;5059494;28;20203;-73
2023/03/20 05:03:11;;;;;;;12.33;2.20;;;22.20;99.90;;;;;;5073283;28;20286;-74
2023/03/20 05:05:39;;;;;;;11.53;2.40;;;22.30;99.90;;;;;;5073265;28;20223;-70
2023/03/20 05:08:07;;;;;;;17.97;3.40;;;22.20;99.90;;;;;;5054784;28;20673;-71
2023/03/20 05:10:35;;;;;;;13.17;2.53;;;22.20;99.90;;;;;;5053195;28;20176;-72
2023/03/20 05:13:02;;;;;;;9.33;2.30;;;22.20;99.90;;;;;;5052948;28;20318;-72
2023/03/20 05:15:30;;;;;;;7.97;1.93;;;22.20;99.90;;;;;;5052799;28;20230;-72
2023/03/20 05:17:58;;;;;;;10.73;2.17;;;22.10;99.90;;;;;;5052940;28;20595;-72
2023/03/20 05:20:26;;;;;;;9.03;2.50;;;22.10;99.90;;;;;;5068583;28;20281;-73
2023/03/20 05:22:54;;;;;;;15.23;2.47;;;22.10;99.90;;;;;;5071467;28;20180;-72
2023/03/20 05:25:21;;;;;;;9.57;2.40;;;22.10;99.90;;;;;;5072606;28;20203;-73
2023/03/20 05:27:49;;;;;;;10.30;1.97;;;22.00;99.90;;;;;;5072680;28;20228;-73
2023/03/20 05:30:18;;;;;;;11.23;1.80;;;22.00;99.90;;;;;;5072582;28;20168;-71
2023/03/20 05:32:49;;;;;;;15.87;2.47;;;22.00;99.90;;;;;;5070820;28;20187;-73
2023/03/20 05:35:17;;;;;;;13.90;2.17;;;21.90;99.90;;;;;;5056559;28;20689;-73
2023/03/20 05:37:45;;;;;;;9.30;2.03;;;22.00;99.90;;;;;;5053940;28;20243;-72
2023/03/20 05:40:14;;;;;;;16.07;3.23;;;21.90;99.90;;;;;;5054762;28;20358;-73
2023/03/20 05:42:42;;;;;;;7.30;1.87;;;21.90;99.90;;;;;;5052559;28;20184;-73
2023/03/20 05:45:10;;;;;;;12.23;2.20;;;21.90;99.90;;;;;;5071282;28;20217;-72
2023/03/20 05:47:38;;;;;;;15.30;2.30;;;21.90;99.90;;;;;;5072302;28;20282;-73
2023/03/20 05:50:06;;;;;;;10.23;2.77;;;21.90;99.90;;;;;;5072269;28;20258;-73
2023/03/20 05:52:34;;;;;;;17.30;2.10;;;22.00;99.90;;;;;;5072454;28;20260;-72
2023/03/20 05:55:02;;;;;;;8.40;1.90;;;22.10;99.90;;;;;;5067268;28;20188;-73
2023/03/20 05:57:30;;;;;;;7.87;2.20;;;22.20;99.90;;;;;;5072312;28;20170;-73
2023/03/20 05:59:58;;;;;;;12.27;2.13;;;22.20;99.90;;;;;;5072160;28;20261;-72
2023/03/20 06:02:25;;;;;;;14.47;2.37;;;22.20;99.90;;;;;;5072184;28;20175;-72
2023/03/20 06:04:53;;;;;;;12.33;2.70;;;22.30;99.90;;;;;;5050508;28;20645;-72
2023/03/20 06:07:21;;;;;;;9.50;2.17;;;22.40;99.90;;;;;;5032208;28;20207;-73
2023/03/20 06:09:49;;;;;;;17.40;2.60;;;22.50;99.90;;;;;;5032061;28;20723;-72
2023/03/20 06:12:17;;;;;;;13.13;2.80;;;22.50;99.90;;;;;;5046289;28;20680;-71
2023/03/20 06:14:45;;;;;;;13.23;2.60;;;22.60;99.90;;;;;;5032151;28;20176;-72
2023/03/20 06:17:13;;;;;;;11.17;2.70;;;22.50;99.90;;;;;;5047718;28;20175;-72
2023/03/20 06:19:41;;;;;;;11.67;2.43;;;22.60;99.90;;;;;;5071968;28;20182;-71
2023/03/20 06:22:08;;;;;;;8.20;2.07;;;22.50;99.90;;;;;;5070680;28;20298;-71
2023/03/20 06:24:37;;;;;;;12.10;2.20;;;22.40;99.90;;;;;;5071790;28;20707;-71
2023/03/20 06:27:04;;;;;;;11.27;2.93;;;22.40;99.90;;;;;;5064590;28;20196;-72
2023/03/20 06:29:32;;;;;;;18.37;2.87;;;22.40;99.90;;;;;;5031868;28;20205;-71
2023/03/20 06:32:00;;;;;;;13.20;3.00;;;22.30;99.90;;;;;;5047228;28;20184;-72
2023/03/20 06:34:29;;;;;;;11.63;1.90;;;22.30;99.90;;;;;;5070666;28;20614;-72
2023/03/20 06:36:56;;;;;;;15.37;3.07;;;22.30;99.90;;;;;;5070452;28;20222;-72
2023/03/20 06:39:24;;;;;;;19.20;3.27;;;22.30;99.90;;;;;;5070545;28;20287;-72
2023/03/20 06:41:52;;;;;;;14.07;2.57;;;22.20;99.90;;;;;;5054254;28;20274;-72
2023/03/20 06:44:20;;;;;;;18.10;3.33;;;22.10;99.90;;;;;;5051608;28;20234;-73
2023/03/20 06:46:48;;;;;;;14.00;2.47;;;22.10;99.90;;;;;;5044882;28;20226;-72
2023/03/20 06:49:16;;;;;;;20.83;3.47;;;22.10;99.90;;;;;;5062473;28;20184;-72
2023/03/20 06:51:44;;;;;;;20.43;3.50;;;22.00;99.90;;;;;;5051570;28;20234;-72
2023/03/20 06:54:11;;;;;;;12.57;2.53;;;22.00;99.90;;;;;;5051704;28;20190;-71
2023/03/20 06:56:39;;;;;;;11.07;2.63;;;22.00;99.90;;;;;;5038766;28;20196;-73
2023/03/20 06:59:08;;;;;;;12.23;2.57;;;22.00;99.90;;;;;;5071640;28;20179;-72
2023/03/20 07:01:36;;;;;;;14.53;2.47;;;21.90;99.90;;;;;;5059813;28;20682;-72
2023/03/20 07:04:03;;;;;;;16.97;2.70;;;21.80;99.90;;;;;;5031490;28;20288;-72
2023/03/20 07:06:32;;;;;;;21.10;2.43;;;21.90;99.90;;;;;;5031032;28;20209;-73
2023/03/20 07:09:00;;;;;;;16.13;2.63;;;21.90;99.90;;;;;;5031493;28;20223;-72
2023/03/20 07:11:29;;;;;;;9.90;2.37;;;21.90;99.90;;;;;;5031569;28;20201;-71
2023/03/20 07:14:00;;;;;;;19.40;2.87;;;21.90;99.90;;;;;;5031412;28;20233;-72
2023/03/20 07:16:28;;;;;;;17.37;3.17;;;21.80;99.90;;;;;;5057977;28;20191;-71
2023/03/20 07:18:56;;;;;;;17.83;3.90;;;21.70;99.90;;;;;;5051400;28;20208;-73
2023/03/20 07:21:24;;;;;;;15.93;3.23;;;21.70;99.90;;;;;;5051342;28;20176;-73
2023/03/20 07:23:51;;;;;;;12.43;2.70;;;21.70;99.90;;;;;;5058293;28;20245;-73
2023/03/20 07:26:20;;;;;;;14.87;2.50;;;21.70;99.90;;;;;;5075085;28;20215;-73
2023/03/20 07:28:47;;;;;;;17.30;2.80;;;21.60;99.90;;;;;;5052718;28;20706;-73
2023/03/20 07:31:24;;;;;;;20.40;3.13;;;21.60;99.90;;;;;;5084962;28;20631;-73
2023/03/20 07:33:52;;;;;;;9.87;2.80;;;21.50;99.90;;;;;;5060906;28;20199;-73
2023/03/20 07:36:20;;;;;;;19.97;2.70;;;21.60;99.90;;;;;;5074860;28;20330;-73
2023/03/20 07:38:48;;;;;;;14.53;3.07;;;21.60;99.90;;;;;;5074763;28;20180;-73
2023/03/20 07:41:15;;;;;;;21.90;2.97;;;21.60;99.90;;;;;;5072183;28;20274;-73
2023/03/20 07:43:43;;;;;;;18.53;2.53;;;21.60;99.90;;;;;;5046317;28;20607;-73
2023/03/20 07:46:11;;;;;;;15.23;2.70;;;21.50;99.90;;;;;;5034839;28;20216;-73
2023/03/20 07:48:39;;;;;;;14.90;2.27;;;21.50;99.90;;;;;;5049899;28;20224;-73
2023/03/20 07:51:07;;;;;;;12.00;2.73;;;21.40;99.90;;;;;;5045270;28;20176;-73
2023/03/20 07:53:35;;;;;;;11.93;2.73;;;21.40;99.90;;;;;;5074703;28;20661;-73
2023/03/20 07:56:03;;;;;;;11.07;2.93;;;21.40;99.90;;;;;;5074476;28;20221;-73
2023/03/20 07:58:31;;;;;;;14.20;2.30;;;21.50;99.90;;;;;;5074515;28;20259;-72
2023/03/20 08:00:59;;;;;;;20.17;2.90;;;21.50;99.90;;;;;;5073408;28;20262;-73
2023/03/20 08:03:27;;;;;;;20.03;3.37;;;21.50;99.90;;;;;;5073160;28;20211;-73
2023/03/20 08:05:55;;;;;;;12.20;2.70;;;21.50;99.90;;;;;;5053551;28;20262;-73
2023/03/20 08:08:28;;;;;;;15.77;2.63;;;21.50;99.90;;;;;;5075861;28;20172;-73
2023/03/20 08:10:56;;;;;;;15.53;3.03;;;21.50;99.90;;;;;;5079876;28;20185;-73
2023/03/20 08:13:24;;;;;;;20.17;2.53;;;21.50;99.90;;;;;;5055596;28;20235;-74
2023/03/20 08:15:52;;;;;;;11.77;2.97;;;21.50;99.90;;;;;;5052462;28;20189;-73
2023/03/20 08:18:21;;;;;;;16.07;2.93;;;21.50;99.90;;;;;;5047374;28;20267;-73
2023/03/20 08:20:49;;;;;;;14.60;2.50;;;21.50;99.90;;;;;;5053255;28;20204;-73
2023/03/20 08:23:18;;;;;;;19.50;3.77;;;21.50;99.90;;;;;;5043820;28;20547;-72
2023/03/20 08:25:55;;;;;;;14.40;2.53;;;21.50;99.90;;;;;;5049432;28;20216;-73
2023/03/20 08:28:24;;;;;;;12.47;3.20;;;21.50;99.90;;;;;;5033928;28;20246;-73
2023/03/20 08:30:52;;;;;;;12.97;2.73;;;21.40;99.90;;;;;;5034171;28;20208;-73
2023/03/20 08:33:20;;;;;;;18.37;2.87;;;21.50;99.90;;;;;;5033300;28;20223;-73
2023/03/20 08:36:00;;;;;;;16.73;3.03;;;21.50;99.90;;;;;;5064007;28;20684;-72
2023/03/20 08:38:28;;;;;;;20.30;3.10;;;21.50;99.90;;;;;;5058248;28;20184;-73
2023/03/20 08:40:55;;;;;;;19.43;3.03;;;21.50;99.90;;;;;;5066974;28;20180;-73
2023/03/20 08:43:23;;;;;;;18.90;3.23;;;21.50;99.90;;;;;;5069644;28;20191;-73
2023/03/20 08:45:51;;;;;;;16.20;2.93;;;21.40;99.90;;;;;;5072441;28;20215;-73
2023/03/20 08:48:19;;;;;;;14.47;2.87;;;21.40;99.90;;;;;;5070827;28;20198;-73
2023/03/20 08:50:47;;;;;;;15.17;2.83;;;21.50;99.90;;;;;;5072901;28;20262;-73
2023/03/20 08:53:15;;;;;;;18.97;3.97;;;21.50;99.90;;;;;;5073285;28;20660;-73
2023/03/20 08:55:48;;;;;;;17.73;2.70;;;21.40;99.90;;;;;;5041032;28;20188;-72
2023/03/20 08:58:17;;;;;;;12.57;2.80;;;21.40;99.90;;;;;;5072958;28;20188;-73
2023/03/20 09:00:45;;;;;;;19.17;4.00;;;21.40;99.90;;;;;;5072573;28;20191;-73
2023/03/20 09:03:18;;;;;;;22.50;3.10;;;21.40;99.90;;;;;;5072895;28;20180;-72
2023/03/20 09:05:51;;;;;;;17.83;3.60;;;21.40;99.90;;;;;;5067638;28;20231;-73
2023/03/20 09:08:19;;;;;;;17.13;3.20;;;21.40;99.90;;;;;;5062371;28;20830;-73
2023/03/20 09:10:48;;;;;;;17.97;3.13;;;21.40;99.90;;;;;;5071680;28;20188;-73
2023/03/20 09:13:16;;;;;;;13.33;2.50;;;21.40;99.90;;;;;;5054309;28;20262;-72
2023/03/20 09:15:44;;;;;;;13.87;3.00;;;21.40;99.90;;;;;;5067224;28;20721;-73
2023/03/20 09:18:11;;;;;;;13.83;2.50;;;21.40;99.90;;;;;;5060787;28;20197;-72
2023/03/20 09:20:39;;;;;;;11.37;2.63;;;21.40;99.90;;;;;;5060147;28;20207;-72
2023/03/20 09:23:07;;;;;;;13.33;3.43;;;21.50;99.90;;;;;;5045613;28;20203;-72
2023/03/20 09:25:35;;;;;;;17.87;3.73;;;21.40;99.90;;;;;;5032399;28;20233;-73
2023/03/20 09:28:03;;;;;;;15.40;3.00;;;21.40;99.90;;;;;;5044726;28;20180;-72
2023/03/20 09:30:31;;;;;;;20.43;3.27;;;21.30;99.90;;;;;;5051363;28;20641;-73
2023/03/20 09:33:01;;;;;;;12.63;3.60;;;21.40;99.90;;;;;;5032348;28;20650;-72
2023/03/20 09:35:29;;;;;;;10.87;2.83;;;21.40;99.90;;;;;;5034988;28;20188;-72
2023/03/20 09:37:57;;;;;;;11.23;3.13;;;21.40;99.90;;;;;;5057020;28;20245;-72
2023/03/20 09:40:53;;;;;;;15.43;2.93;;;21.40;99.90;;;;;;5066828;28;20264;-72
2023/03/20 09:43:46;;;;;;;13.53;2.90;;;21.40;99.90;;;;;;5045894;28;20728;-72
2023/03/20 09:46:20;;;;;;;12.33;2.70;;;21.30;99.90;;;;;;5072215;28;20306;-72
2023/03/20 09:49:22;;;;;;;19.97;2.90;;;21.30;99.90;;;;;;5069323;28;20547;-72
2023/03/20 09:52:12;;;;;;;15.53;2.53;;;21.30;99.90;;;;;;5063702;28;20199;-73
2023/03/20 09:54:47;;;;;;;11.13;2.80;;;21.20;99.90;;;;;;5066705;28;20200;-72
2023/03/20 09:57:27;;;;;;;10.87;3.00;;;21.20;99.90;;;;;;5071615;28;20175;-73
2023/03/20 10:00:06;;;;;;;13.67;3.33;;;21.10;99.90;;;;;;5071959;28;20196;-71
2023/03/20 10:02:53;;;;;;;13.00;2.90;;;21.10;99.90;;;;;;5072122;28;20237;-72
2023/03/20 10:05:26;;;;;;;12.10;2.30;;;21.10;99.90;;;;;;5068941;28;20266;-72
2023/03/20 10:08:00;;;;;;;13.93;2.83;;;21.10;99.90;;;;;;5049343;28;20180;-71
2023/03/20 10:10:45;;;;;;;17.73;2.67;;;21.10;99.90;;;;;;5051950;28;20185;-72
2023/03/20 10:13:21;;;;;;;14.33;3.13;;;21.10;99.90;;;;;;5056532;28;20585;-73
2023/03/20 10:16:15;;;;;;;19.40;3.57;;;21.10;99.90;;;;;;5071587;28;20215;-73
2023/03/20 10:19:05;;;;;;;21.67;3.07;;;21.20;99.90;;;;;;5058783;28;20562;-72
2023/03/20 10:21:43;;;;;;;21.33;3.00;;;21.30;99.90;;;;;;5071378;28;20179;-73
2023/03/20 10:24:28;;;;;;;11.83;2.27;;;21.20;99.90;;;;;;5071501;28;20188;-73
2023/03/20 10:27:02;;;;;;;22.40;2.97;;;21.10;99.90;;;;;;5071519;28;20191;-73
2023/03/20 10:29:51;;;;;;;22.20;3.17;;;21.10;99.90;;;;;;5052519;28;20597;-73
2023/03/20 10:32:40;;;;;;;18.83;3.20;;;20.90;99.90;;;;;;5051473;28;20546;-73
2023/03/20 10:35:32;;;;;;;15.73;3.70;;;20.80;99.90;;;;;;5066094;28;20192;-74
2023/03/20 10:38:11;;;;;;;15.60;3.20;;;20.70;99.90;;;;;;5059643;28;20703;-73
2023/03/20 10:40:41;;;;;;;14.70;3.03;;;20.70;99.90;;;;;;5033144;28;20189;-73
2023/03/20 10:43:31;;;;;;;16.13;2.27;;;20.60;99.90;;;;;;5036620;28;20176;-73
2023/03/20 10:46:14;;;;;;;11.63;3.10;;;20.60;99.90;;;;;;5061293;28;20689;-73
2023/03/20 10:48:49;;;;;;;15.90;2.40;;;20.50;99.90;;;;;;5061830;28;20272;-74
2023/03/20 10:51:24;;;;;;;14.20;2.70;;;20.40;99.90;;;;;;5071688;28;20194;-73
2023/03/20 10:54:03;;;;;;;13.00;2.67;;;20.30;99.90;;;;;;5072274;28;20647;-73
2023/03/20 10:56:38;;;;;;;13.20;2.50;;;20.10;99.90;;;;;;5070026;28;20186;-73
2023/03/20 10:59:34;;;;;;;12.80;2.67;;;20.00;99.90;;;;;;5072508;28;20191;-73
2023/03/20 11:02:02;;;;;;;14.00;2.50;;;19.90;99.90;;;;;;5073993;28;20647;-73
2023/03/20 11:04:29;;;;;;;16.57;2.57;;;19.90;99.90;;;;;;5076436;28;20181;-73
2023/03/20 11:07:06;;;;;;;12.47;2.47;;;20.00;99.90;;;;;;5074415;28;20267;-74
2023/03/20 11:09:34;;;;;;;13.17;2.90;;;20.00;99.90;;;;;;5074047;28;20179;-73
2023/03/20 11:12:03;;;;;;;18.10;3.87;;;20.00;99.90;;;;;;5072580;28;20709;-74
2023/03/20 11:14:39;;;;;;;10.87;3.00;;;20.00;99.90;;;;;;5052415;28;20275;-74
2023/03/20 11:17:07;;;;;;;13.50;2.40;;;20.00;99.90;;;;;;5082568;28;20218;-74
2023/03/20 11:19:38;;;;;;;16.83;2.40;;;20.00;99.90;;;;;;5076104;28;20170;-74
2023/03/20 11:22:26;;;;;;;12.83;2.33;;;20.10;99.90;;;;;;5076350;28;20182;-73
2023/03/20 11:25:02;;;;;;;17.87;2.17;;;20.10;99.90;;;;;;5067464;28;20220;-73
2023/03/20 11:27:34;;;;;;;9.93;2.00;;;20.10;99.90;;;;;;5063987;28;20184;-73
2023/03/20 11:30:16;;;;;;;15.00;2.57;;;20.20;99.90;;;;;;5075998;28;20262;-73
2023/03/20 11:32:54;;;;;;;13.03;2.53;;;20.10;99.90;;;;;;5075993;28;20651;-74
2023/03/20 11:35:31;;;;;;;10.33;2.20;;;20.10;99.90;;;;;;5075960;28;20252;-74
2023/03/20 11:38:16;;;;;;;8.77;2.50;;;20.10;99.90;;;;;;5054955;28;20180;-73
2023/03/20 11:40:47;;;;;;;12.83;2.70;;;20.10;99.90;;;;;;5059957;28;20557;-74
2023/03/20 11:43:40;;;;;;;10.00;2.17;;;20.10;99.90;;;;;;5046838;28;20200;-73
2023/03/20 11:46:12;;;;;;;11.83;2.93;;;20.10;99.90;;;;;;5055963;28;20226;-73
2023/03/20 11:48:45;;;;;;;12.47;2.20;;;20.20;99.90;;;;;;5075655;28;20646;-73
2023/03/20 11:51:18;;;;;;;10.50;2.57;;;20.20;99.90;;;;;;5073284;28;20184;-73
2023/03/20 11:53:49;;;;;;;9.80;2.10;;;20.20;99.90;;;;;;5067757;28;20189;-73
2023/03/20 11:56:27;;;;;;;8.47;2.13;;;20.20;99.90;;;;;;5071912;28;20188;-73
2023/03/20 11:59:06;;;;;;;10.43;2.50;;;20.20;99.90;;;;;;5073343;28;20187;-73
2023/03/20 12:01:47;;;;;;;10.23;2.27;;;20.20;99.90;;;;;;5069862;28;20544;-73
2023/03/20 12:04:25;;;;;;;11.80;2.00;;;20.20;99.90;;;;;;5067346;28;20550;-73
2023/03/20 12:06:55;;;;;;;12.73;2.33;;;20.20;99.90;;;;;;5071679;28;20652;-73
2023/03/20 12:09:23;;;;;;;7.43;1.73;;;20.20;99.90;;;;;;5073282;28;20176;-73
2023/03/20 12:12:01;;;;;;;11.57;2.20;;;20.20;99.90;;;;;;5063555;28;20323;-73
2023/03/20 12:14:39;;;;;;;9.03;2.40;;;20.20;99.90;;;;;;5057666;28;20211;-73
2023/03/20 12:17:33;;;;;;;12.87;2.80;;;20.30;99.90;;;;;;5065530;28;20292;-73
2023/03/20 12:20:26;;;;;;;9.20;2.43;;;20.20;99.90;;;;;;5070968;28;20193;-73
2023/03/20 12:23:20;;;;;;;12.30;2.67;;;20.20;99.90;;;;;;5072358;28;20207;-74
2023/03/20 12:26:11;;;;;;;11.07;2.50;;;20.00;99.90;;;;;;5062278;28;20225;-73
2023/03/20 12:28:57;;;;;;;9.67;2.47;;;19.90;99.90;;;;;;5048504;28;20651;-73
2023/03/20 12:31:40;;;;;;;12.33;2.40;;;19.80;99.90;;;;;;5064763;28;20203;-73
2023/03/20 12:34:15;;;;;;;15.77;2.77;;;19.80;99.90;;;;;;5064622;28;20190;-74
2023/03/20 12:36:46;;;;;;;15.80;3.00;;;19.70;99.90;;;;;;5070362;28;20201;-73
2023/03/20 12:39:22;;;;;;;15.17;3.07;;;19.70;99.90;;;;;;5073215;28;20544;-73
2023/03/20 12:42:17;;;;;;;15.70;3.43;;;19.70;99.90;;;;;;5073214;28;20198;-73
2023/03/20 12:45:10;;;;;;;16.47;3.47;;;19.70;99.90;;;;;;5072075;28;20569;-74
2023/03/20 12:47:53;;;;;;;17.53;3.00;;;19.70;99.90;;;;;;5041689;28;20670;-73
2023/03/20 12:50:40;;;;;;;16.37;2.50;;;19.70;99.90;;;;;;5034908;28;20180;-73
2023/03/20 12:53:20;;;;;;;13.17;2.93;;;19.60;99.90;;;;;;5035156;28;20205;-73
2023/03/20 12:56:24;;;;;;;14.27;3.00;;;19.60;99.90;;;;;;5041492;28;20195;-73
2023/03/20 12:59:10;;;;;;;17.77;2.77;;;19.60;99.90;;;;;;5034194;28;20178;-73
2023/03/20 13:01:47;;;;;;;18.93;2.90;;;19.50;99.90;;;;;;5034921;28;20175;-73
2023/03/20 13:04:50;;;;;;;15.80;3.60;;;19.50;99.90;;;;;;5043082;28;20190;-73
2023/03/20 13:07:33;;;;;;;13.60;3.33;;;19.50;99.90;;;;;;5054495;28;20195;-73
2023/03/20 13:10:05;;;;;;;20.37;3.27;;;19.60;99.90;;;;;;5034782;28;20183;-73
2023/03/20 13:13:04;;;;;;;17.90;4.03;;;19.50;99.90;;;;;;5033469;28;20220;-73